createdAt,value
2022-09-28T00:01:00.965Z,4.80
2022-09-28T00:03:29.151Z,4.18
2022-09-28T00:06:02.428Z,5.07
2022-09-28T00:08:32.357Z,2.95
2022-09-28T00:11:00.407Z,3.20
2022-09-28T00:13:29.449Z,5.10
2022-09-28T00:16:01.854Z,4.40
2022-09-28T00:18:30.114Z,4.35
2022-09-28T00:21:02.698Z,2.80
2022-09-28T00:23:32.335Z,5.60
2022-09-28T00:26:03.746Z,3.67
2022-09-28T00:28:32.048Z,4.68
2022-09-28T00:31:00.322Z,7.20
2022-09-28T00:33:29.568Z,4.45
2022-09-28T00:35:58.739Z,3.75
2022-09-28T00:38:31.382Z,2.80
2022-09-28T00:40:59.603Z,3.45
2022-09-28T00:43:28.020Z,2.83
2022-09-28T00:46:00.164Z,4.03
2022-09-28T00:48:31.410Z,2.63
2022-09-28T00:51:02.109Z,8.43
2022-09-28T00:53:34.810Z,4.43
2022-09-28T00:56:07.376Z,4.70
2022-09-28T00:58:44.322Z,4.18
2022-09-28T01:01:12.910Z,4.13
2022-09-28T01:03:45.229Z,3.38
2022-09-28T01:06:18.897Z,4.03
2022-09-28T01:08:51.486Z,4.45
2022-09-28T01:11:20.440Z,3.97
2022-09-28T01:13:51.238Z,6.28
2022-09-28T01:16:28.469Z,2.85
2022-09-28T01:19:07.976Z,5.38
2022-09-28T01:21:46.545Z,2.53
2022-09-28T01:24:33.469Z,2.67
2022-09-28T01:27:11.418Z,4.60
2022-09-28T01:29:50.261Z,2.78
2022-09-28T01:32:28.819Z,5.13
2022-09-28T01:35:02.014Z,3.80
2022-09-28T01:37:36.712Z,3.67
2022-09-28T01:40:08.098Z,2.63
2022-09-28T01:42:40.541Z,2.75
2022-09-28T01:45:15.462Z,9.70
2022-09-28T01:47:46.134Z,3.47
2022-09-28T01:50:17.664Z,4.75
2022-09-28T01:52:50.989Z,3.13
2022-09-28T01:55:27.553Z,3.65
2022-09-28T01:58:01.315Z,3.20
2022-09-28T02:00:29.838Z,5.95
2022-09-28T02:03:02.992Z,3.38
2022-09-28T02:05:49.902Z,2.97
2022-09-28T02:08:25.362Z,3.35
2022-09-28T02:10:58.717Z,4.30
2022-09-28T02:13:32.561Z,3.55
2022-09-28T02:16:06.053Z,4.30
2022-09-28T02:18:34.612Z,3.45
2022-09-28T02:21:10.049Z,5.75
2022-09-28T02:23:42.653Z,4.05
2022-09-28T02:26:14.913Z,3.97
2022-09-28T02:28:44.479Z,3.28
2022-09-28T02:31:12.637Z,5.15
2022-09-28T02:33:45.113Z,6.22
2022-09-28T02:36:13.833Z,5.68
2022-09-28T02:38:41.866Z,4.93
2022-09-28T02:41:19.333Z,3.95
2022-09-28T02:44:01.417Z,6.93
2022-09-28T02:46:40.429Z,5.55
2022-09-28T02:49:27.956Z,4.38
2022-09-28T02:52:11.494Z,4.30
2022-09-28T02:55:08.592Z,5.20
2022-09-28T02:57:48.162Z,5.57
2022-09-28T03:00:20.655Z,5.88
2022-09-28T03:03:02.372Z,4.82
2022-09-28T03:05:41.025Z,4.88
2022-09-28T03:08:17.089Z,4.63
2022-09-28T03:10:50.653Z,5.50
2022-09-28T03:13:19.601Z,4.35
2022-09-28T03:15:49.210Z,7.75
2022-09-28T03:18:18.677Z,5.57
2022-09-28T03:20:47.443Z,5.93
2022-09-28T03:23:30.714Z,6.90
2022-09-28T03:25:58.829Z,6.32
2022-09-28T03:28:27.938Z,6.40
2022-09-28T03:30:57.876Z,6.60
2022-09-28T03:33:25.879Z,5.80
2022-09-28T03:35:54.586Z,9.13
2022-09-28T03:38:23.012Z,10.00
2022-09-28T03:40:54.842Z,5.43
2022-09-28T03:43:23.516Z,6.47
2022-09-28T03:45:54.425Z,6.68
2022-09-28T03:48:31.920Z,7.18
2022-09-28T03:51:03.005Z,6.70
2022-09-28T03:53:31.302Z,9.07
2022-09-28T03:56:04.353Z,9.93
2022-09-28T03:58:33.252Z,6.38
2022-09-28T04:01:05.809Z,7.53
2022-09-28T04:03:35.898Z,12.38
2022-09-28T04:06:04.125Z,8.00
2022-09-28T04:08:32.411Z,8.77
2022-09-28T04:11:01.493Z,9.88
2022-09-28T04:13:31.484Z,10.35
2022-09-28T04:16:02.025Z,9.77
2022-09-28T04:18:35.166Z,9.15
2022-09-28T04:21:14.277Z,12.73
2022-09-28T04:23:48.978Z,8.27
2022-09-28T04:26:19.613Z,11.80
2022-09-28T04:29:07.203Z,8.38
2022-09-28T04:31:40.243Z,9.70
2022-09-28T04:34:10.037Z,9.32
2022-09-28T04:36:38.248Z,13.60
2022-09-28T04:39:06.422Z,12.50
2022-09-28T04:41:35.143Z,13.68
2022-09-28T04:44:04.273Z,16.10
2022-09-28T04:46:32.351Z,11.93
2022-09-28T04:49:20.279Z,14.40
2022-09-28T04:51:54.427Z,13.25
2022-09-28T04:54:22.503Z,15.65
2022-09-28T04:56:52.507Z,13.32
2022-09-28T04:59:20.974Z,10.73
2022-09-28T05:01:49.441Z,12.07
2022-09-28T05:04:31.449Z,12.48
2022-09-28T05:07:10.744Z,11.27
2022-09-28T05:09:39.428Z,11.38
2022-09-28T05:12:07.510Z,14.43
2022-09-28T05:14:35.664Z,14.00
2022-09-28T05:17:05.123Z,14.15
2022-09-28T05:19:50.045Z,12.23
2022-09-28T05:22:18.056Z,10.43
2022-09-28T05:24:47.744Z,10.23
2022-09-28T05:27:16.199Z,10.45
2022-09-28T05:29:47.888Z,12.52
2022-09-28T05:32:25.100Z,11.98
2022-09-28T05:35:08.921Z,13.10
2022-09-28T05:37:43.430Z,13.18
2022-09-28T05:40:12.341Z,15.23
2022-09-28T05:42:40.898Z,12.85
2022-09-28T05:45:10.306Z,11.55
2022-09-28T05:47:41.729Z,13.32
2022-09-28T05:50:15.694Z,12.68
2022-09-28T05:52:44.817Z,12.90
2022-09-28T05:55:14.499Z,12.95
2022-09-28T05:57:43.329Z,13.27
2022-09-28T06:00:12.817Z,10.45
2022-09-28T06:02:42.371Z,17.70
2022-09-28T06:05:14.471Z,17.05
2022-09-28T06:07:42.743Z,11.48
2022-09-28T06:10:11.494Z,11.57
2022-09-28T06:12:43.514Z,11.93
2022-09-28T06:15:17.803Z,11.43
2022-09-28T06:17:47.356Z,11.57
2022-09-28T06:20:39.645Z,10.35
2022-09-28T06:23:11.309Z,9.18
2022-09-28T06:25:39.584Z,11.52
2022-09-28T06:28:10.226Z,9.23
2022-09-28T06:30:39.174Z,10.35
2022-09-28T06:33:13.497Z,9.77
2022-09-28T06:35:43.835Z,8.68
2022-09-28T06:38:12.700Z,7.28
2022-09-28T06:40:40.821Z,7.10
2022-09-28T06:43:12.131Z,8.02
2022-09-28T06:46:15.630Z,8.15
2022-09-28T06:48:44.247Z,7.60
2022-09-28T06:51:20.901Z,7.10
2022-09-28T06:53:57.055Z,6.55
2022-09-28T06:56:54.411Z,6.55
2022-09-28T06:59:22.528Z,5.88
2022-09-28T07:01:50.846Z,4.68
2022-09-28T07:04:42.980Z,5.85
2022-09-28T07:07:15.133Z,5.28
2022-09-28T07:10:22.071Z,6.82
2022-09-28T07:13:14.614Z,7.45
2022-09-28T07:15:55.870Z,6.30
2022-09-28T07:18:24.328Z,6.97
2022-09-28T07:20:54.663Z,6.00
2022-09-28T07:23:26.206Z,5.18
2022-09-28T07:26:12.535Z,4.90
2022-09-28T07:28:59.387Z,7.68
2022-09-28T07:31:48.468Z,7.10
2022-09-28T07:34:39.856Z,8.82
2022-09-28T07:37:13.614Z,6.10
2022-09-28T07:40:00.799Z,5.65
2022-09-28T07:42:30.955Z,8.38
2022-09-28T07:44:59.543Z,7.50
2022-09-28T07:47:33.924Z,7.65
2022-09-28T07:50:32.838Z,7.28
2022-09-28T07:53:22.305Z,7.90
2022-09-28T07:56:07.200Z,8.77
2022-09-28T07:58:43.047Z,7.90
2022-09-28T08:01:40.131Z,9.38
2022-09-28T08:04:10.779Z,13.93
2022-09-28T08:06:40.577Z,11.07
2022-09-28T08:09:10.579Z,11.52
2022-09-28T08:12:00.579Z,9.27
2022-09-28T08:15:00.073Z,9.93
2022-09-28T08:17:48.441Z,10.00
2022-09-28T08:20:36.050Z,8.45
2022-09-28T08:23:04.870Z,7.20
2022-09-28T08:25:34.350Z,7.43
2022-09-28T08:28:07.151Z,7.25
2022-09-28T08:30:39.082Z,7.40
2022-09-28T08:33:39.429Z,6.90
2022-09-28T08:36:45.665Z,7.50
2022-09-28T08:39:34.395Z,6.95
2022-09-28T08:42:35.642Z,7.28
2022-09-28T08:45:29.848Z,8.52
2022-09-28T08:48:29.047Z,7.38
2022-09-28T08:51:20.034Z,5.57
2022-09-28T08:54:25.622Z,6.88
2022-09-28T08:56:59.424Z,5.43
2022-09-28T08:59:32.491Z,6.47
2022-09-28T09:02:16.504Z,6.18
2022-09-28T09:04:44.825Z,5.20
2022-09-28T09:07:41.926Z,6.20
2022-09-28T09:10:28.573Z,10.23
2022-09-28T09:13:07.313Z,4.95
2022-09-28T09:15:48.727Z,4.88
2022-09-28T09:18:36.877Z,5.40
2022-09-28T09:21:39.630Z,6.20
2022-09-28T09:24:30.453Z,5.38
2022-09-28T09:27:14.032Z,5.15
2022-09-28T09:30:01.172Z,4.40
2022-09-28T09:32:44.363Z,5.18
2022-09-28T09:35:31.102Z,5.40
2022-09-28T09:38:46.369Z,5.18
2022-09-28T09:41:51.566Z,5.15
2022-09-28T09:45:14.470Z,3.88
2022-09-28T09:48:05.503Z,4.57
2022-09-28T09:50:41.319Z,4.38
2022-09-28T09:53:17.267Z,4.10
2022-09-28T09:55:47.987Z,4.45
2022-09-28T09:58:40.341Z,4.97
2022-09-28T10:01:28.084Z,4.20
2022-09-28T10:04:31.892Z,5.72
2022-09-28T10:07:07.638Z,3.45
2022-09-28T10:09:42.164Z,4.65
2022-09-28T10:12:27.425Z,4.50
2022-09-28T10:14:56.530Z,4.70
2022-09-28T10:17:28.591Z,4.32
2022-09-28T10:20:35.598Z,3.58
2022-09-28T10:23:23.441Z,3.90
2022-09-28T10:25:55.024Z,4.82
2022-09-28T10:28:30.244Z,3.65
2022-09-28T10:30:58.532Z,3.35
2022-09-28T10:33:31.942Z,9.57
2022-09-28T10:36:01.232Z,3.78
2022-09-28T10:38:31.821Z,3.45
2022-09-28T10:41:16.570Z,4.07
2022-09-28T10:44:07.078Z,3.95
2022-09-28T10:46:57.910Z,5.20
2022-09-28T10:49:27.021Z,3.80
2022-09-28T10:51:58.698Z,5.03
2022-09-28T10:54:53.182Z,3.90
2022-09-28T10:57:29.365Z,3.47
2022-09-28T11:00:06.939Z,3.78
2022-09-28T11:02:58.144Z,4.28
2022-09-28T11:05:28.639Z,6.30
2022-09-28T11:08:00.819Z,5.38
2022-09-28T11:10:37.238Z,2.83
2022-09-28T11:13:15.868Z,2.72
2022-09-28T11:15:51.137Z,4.35
2022-09-28T11:18:31.461Z,4.47
2022-09-28T11:21:12.678Z,2.92
2022-09-28T11:23:44.124Z,3.63
2022-09-28T11:26:22.912Z,3.00
2022-09-28T11:28:53.486Z,2.70
2022-09-28T11:31:32.434Z,3.30
2022-09-28T11:34:15.924Z,4.43
2022-09-28T11:37:16.357Z,2.60
2022-09-28T11:39:54.287Z,3.50
2022-09-28T11:42:36.374Z,3.70
2022-09-28T11:45:24.710Z,3.72
2022-09-28T11:47:59.086Z,3.85
2022-09-28T11:50:40.408Z,3.90
2022-09-28T11:53:19.660Z,3.05
2022-09-28T11:55:55.709Z,3.53
2022-09-28T11:58:30.503Z,3.15
2022-09-28T12:01:06.427Z,3.63
2022-09-28T12:04:07.754Z,3.40
2022-09-28T12:06:41.730Z,3.13
2022-09-28T12:09:19.770Z,2.70
2022-09-28T12:12:04.238Z,3.05
2022-09-28T12:14:47.933Z,3.42
2022-09-28T12:17:22.381Z,2.10
2022-09-28T12:19:55.576Z,2.20
2022-09-28T12:22:30.288Z,7.60
2022-09-28T12:24:59.284Z,1.83
2022-09-28T12:27:33.611Z,3.42
2022-09-28T12:30:06.507Z,2.58
2022-09-28T12:32:39.214Z,3.47
2022-09-28T12:35:13.573Z,3.83
2022-09-28T12:37:55.406Z,2.67
2022-09-28T12:40:37.477Z,4.03
2022-09-28T12:43:40.491Z,2.97
2022-09-28T12:46:30.293Z,3.65
2022-09-28T12:52:24.021Z,3.97
2022-09-28T12:55:20.725Z,3.85
2022-09-28T12:57:59.719Z,4.63
2022-09-28T13:00:35.525Z,4.03
2022-09-28T13:03:31.900Z,5.05
2022-09-28T13:06:15.005Z,5.82
2022-09-28T13:08:53.246Z,3.35
2022-09-28T13:11:31.800Z,4.00
2022-09-28T13:14:22.167Z,5.38
2022-09-28T13:17:00.495Z,4.57
2022-09-28T13:19:41.151Z,4.00
2022-09-28T13:22:22.011Z,5.28
2022-09-28T13:24:51.377Z,3.45
2022-09-28T13:27:26.734Z,3.65
2022-09-28T13:29:58.720Z,5.43
2022-09-28T13:32:31.486Z,5.95
2022-09-28T13:35:02.459Z,4.22
2022-09-28T13:37:30.803Z,3.15
2022-09-28T13:39:59.733Z,3.25
2022-09-28T13:42:55.625Z,3.60
2022-09-28T13:45:46.478Z,3.00
2022-09-28T13:48:17.096Z,3.58
2022-09-28T13:51:25.216Z,4.43
2022-09-28T13:54:11.063Z,3.88
2022-09-28T13:56:50.248Z,2.53
2022-09-28T13:59:24.688Z,2.58
2022-09-28T14:01:57.575Z,1.80
2022-09-28T14:04:53.391Z,3.13
2022-09-28T14:07:25.514Z,3.20
2022-09-28T14:10:17.093Z,2.58
2022-09-28T14:12:49.786Z,2.78
2022-09-28T14:15:54.621Z,1.70
2022-09-28T14:18:32.123Z,6.97
2022-09-28T14:21:18.797Z,3.42
2022-09-28T14:24:16.347Z,3.35
2022-09-28T14:27:20.159Z,1.70
2022-09-28T14:29:51.862Z,1.83
2022-09-28T14:32:25.496Z,2.22
2022-09-28T14:34:59.174Z,2.08
2022-09-28T14:37:47.306Z,1.90
2022-09-28T14:40:39.517Z,2.88
2022-09-28T14:43:27.200Z,2.13
2022-09-28T14:46:31.083Z,2.83
2022-09-28T14:49:03.346Z,1.92
2022-09-28T14:52:07.985Z,4.13
2022-09-28T14:54:59.353Z,3.65
2022-09-28T14:57:32.177Z,5.57
2022-09-28T15:00:01.636Z,3.17
2022-09-28T15:02:33.467Z,2.03
2022-09-28T15:05:11.874Z,1.02
2022-09-28T15:07:49.511Z,3.65
2022-09-28T15:10:32.095Z,3.60
2022-09-28T15:13:03.717Z,1.38
2022-09-28T15:15:34.761Z,1.58
2022-09-28T15:18:13.595Z,4.45
2022-09-28T15:20:43.570Z,5.15
2022-09-28T15:23:26.907Z,3.17
2022-09-28T15:25:56.082Z,1.58
2022-09-28T15:28:25.839Z,2.78
2022-09-28T15:31:00.440Z,2.17
2022-09-28T15:33:48.015Z,3.45
2022-09-28T15:36:21.117Z,1.40
2022-09-28T15:38:55.930Z,1.67
2022-09-28T15:41:25.492Z,1.40
2022-09-28T15:44:33.282Z,2.22
2022-09-28T15:47:16.535Z,5.00
2022-09-28T15:49:48.047Z,4.97
2022-09-28T15:52:29.675Z,2.58
2022-09-28T15:54:58.949Z,1.50
2022-09-28T15:57:33.895Z,5.28
2022-09-28T16:00:04.216Z,4.55
2022-09-28T16:02:39.976Z,3.10
2022-09-28T16:05:34.044Z,3.72
2022-09-28T16:08:04.252Z,2.05
2022-09-28T16:10:34.483Z,2.70
2022-09-28T16:13:15.521Z,1.90
2022-09-28T16:15:45.365Z,1.80
2022-09-28T16:18:20.604Z,2.25
2022-09-28T16:20:51.025Z,2.08
2022-09-28T16:23:24.043Z,2.00
2022-09-28T16:25:56.355Z,1.88
2022-09-28T16:28:48.724Z,1.67
2022-09-28T16:31:37.210Z,2.10
2022-09-28T16:34:20.692Z,2.63
2022-09-28T16:36:49.970Z,2.45
2022-09-28T16:39:20.524Z,1.70
2022-09-28T16:41:52.845Z,1.70
2022-09-28T16:44:25.767Z,6.63
2022-09-28T16:47:00.175Z,2.50
2022-09-28T16:49:28.524Z,5.70
2022-09-28T16:51:56.514Z,3.13
2022-09-28T16:54:43.900Z,2.47
2022-09-28T16:57:13.852Z,3.42
2022-09-28T16:59:42.216Z,2.58
2022-09-28T17:02:45.188Z,3.30
2022-09-28T17:05:10.159Z,5.20
2022-09-28T17:07:39.267Z,4.22
2022-09-28T17:10:18.282Z,2.50
2022-09-28T17:12:46.426Z,6.13
2022-09-28T17:15:20.290Z,3.53
2022-09-28T17:17:51.284Z,3.25
2022-09-28T17:20:22.801Z,6.30
2022-09-28T17:22:51.094Z,9.40
2022-09-28T17:25:19.430Z,14.43
2022-09-28T17:27:48.970Z,10.65
2022-09-28T17:30:20.252Z,6.55
2022-09-28T17:32:51.739Z,3.72
2022-09-28T17:35:25.040Z,8.40
2022-09-28T17:37:54.320Z,9.65
2022-09-28T17:40:24.500Z,3.67
2022-09-28T17:42:55.082Z,1.70
2022-09-28T17:45:24.158Z,1.75
2022-09-28T17:47:53.825Z,1.15
2022-09-28T17:50:24.662Z,1.80
2022-09-28T17:52:53.609Z,1.15
2022-09-28T17:55:22.806Z,0.70
2022-09-28T17:57:51.509Z,1.95
2022-09-28T18:00:19.901Z,1.67
2022-09-28T18:02:49.076Z,1.20
2022-09-28T18:05:19.587Z,1.75
2022-09-28T18:07:49.787Z,2.35
2022-09-28T18:10:19.573Z,2.33
2022-09-28T18:12:48.517Z,2.63
2022-09-28T18:15:20.104Z,1.30
2022-09-28T18:17:48.226Z,1.98
2022-09-28T18:20:17.719Z,1.13
2022-09-28T18:22:45.822Z,2.65
2022-09-28T18:25:14.042Z,3.78
2022-09-28T18:27:42.627Z,1.60
2022-09-28T18:30:11.452Z,3.67
2022-09-28T18:32:39.920Z,5.97
2022-09-28T18:35:11.145Z,3.40
2022-09-28T18:37:41.571Z,17.65
2022-09-28T18:40:12.724Z,8.57
2022-09-28T18:42:41.412Z,9.15
2022-09-28T18:45:11.798Z,7.43
2022-09-28T18:47:40.679Z,4.40
2022-09-28T18:50:09.753Z,4.00
2022-09-28T18:52:38.201Z,5.03
2022-09-28T18:55:08.841Z,6.45
2022-09-28T18:57:37.635Z,6.03
2022-09-28T19:00:09.356Z,7.82
2022-09-28T19:02:37.817Z,4.22
2022-09-28T19:05:07.150Z,8.20
2022-09-28T19:07:36.585Z,4.05
2022-09-28T19:10:05.507Z,3.90
2022-09-28T19:12:35.304Z,3.60
2022-09-28T19:15:03.591Z,3.00
2022-09-28T19:17:31.761Z,4.45
2022-09-28T19:19:59.919Z,3.47
2022-09-28T19:22:28.007Z,2.33
2022-09-28T19:24:56.940Z,4.90
2022-09-28T19:27:25.054Z,4.35
2022-09-28T19:29:54.536Z,2.95
2022-09-28T19:32:22.650Z,3.80
2022-09-28T19:34:50.856Z,5.32
2022-09-28T19:37:19.104Z,2.53
2022-09-28T19:39:47.287Z,2.85
2022-09-28T19:42:15.452Z,2.53
2022-09-28T19:44:43.922Z,6.15
2022-09-28T19:47:13.435Z,6.75
2022-09-28T19:49:41.872Z,3.55
2022-09-28T19:52:15.602Z,2.85
2022-09-28T19:54:45.991Z,2.78
2022-09-28T19:57:15.997Z,5.90
2022-09-28T19:59:44.310Z,4.45
2022-09-28T20:02:14.045Z,3.65
2022-09-28T20:04:42.095Z,2.83
2022-09-28T20:07:10.375Z,2.78
2022-09-28T20:09:38.364Z,6.20
2022-09-28T20:12:06.583Z,4.45
2022-09-28T20:14:39.439Z,5.07
2022-09-28T20:17:08.767Z,6.07
2022-09-28T20:19:38.339Z,5.80
2022-09-28T20:22:06.556Z,5.90
2022-09-28T20:24:34.659Z,10.90
2022-09-28T20:27:02.743Z,7.45
2022-09-28T20:29:33.375Z,6.53
2022-09-28T20:32:03.761Z,6.30
2022-09-28T20:34:36.502Z,5.68
2022-09-28T20:37:05.846Z,6.10
2022-09-28T20:39:34.393Z,7.70
2022-09-28T20:42:02.788Z,5.72
2022-09-28T20:44:31.215Z,4.57
2022-09-28T20:46:59.401Z,10.95
2022-09-28T20:49:28.082Z,23.05
2022-09-28T20:51:56.165Z,8.60
2022-09-28T20:54:25.592Z,10.57
2022-09-28T20:56:53.620Z,10.68
2022-09-28T20:59:24.191Z,5.63
2022-09-28T21:01:52.441Z,5.57
2022-09-28T21:04:20.667Z,5.82
2022-09-28T21:06:48.788Z,6.82
2022-09-28T21:09:16.781Z,6.82
2022-09-28T21:11:46.689Z,7.75
2022-09-28T21:14:15.070Z,6.53
2022-09-28T21:16:43.059Z,5.45
2022-09-28T21:19:11.051Z,19.58
2022-09-28T21:21:39.230Z,13.10
2022-09-28T21:24:07.811Z,11.32
2022-09-28T21:26:35.839Z,45.10
2022-09-28T21:29:07.365Z,23.52
2022-09-28T21:31:39.965Z,30.23
2022-09-28T21:34:08.363Z,45.95
2022-09-28T21:36:36.660Z,54.90
2022-09-28T21:39:09.525Z,10.68
2022-09-28T21:41:38.601Z,9.30
2022-09-28T21:44:08.494Z,12.35
2022-09-28T21:46:37.345Z,9.40
2022-09-28T21:49:07.650Z,31.70
2022-09-28T21:51:36.449Z,58.97
2022-09-28T21:54:04.770Z,34.65
2022-09-28T21:56:32.741Z,50.92
2022-09-28T21:59:01.260Z,87.50
2022-09-28T22:01:31.743Z,36.97
2022-09-28T22:03:59.969Z,27.90
2022-09-28T22:06:28.925Z,37.08
2022-09-28T22:08:57.687Z,48.08
2022-09-28T22:11:28.399Z,28.48
2022-09-28T22:13:58.101Z,12.70
2022-09-28T22:16:28.872Z,7.72
2022-09-28T22:18:58.833Z,23.38
2022-09-28T22:21:28.490Z,10.50
2022-09-28T22:24:00.863Z,18.40
2022-09-28T22:26:29.881Z,34.50
2022-09-28T22:28:59.441Z,34.50
2022-09-28T22:31:29.163Z,66.72
2022-09-28T22:33:58.803Z,53.20
2022-09-28T22:36:27.521Z,43.85
2022-09-28T22:38:56.466Z,32.22
2022-09-28T22:41:24.900Z,14.63
2022-09-28T22:43:54.761Z,32.90
2022-09-28T22:46:24.963Z,47.38
2022-09-28T22:48:54.733Z,45.22
2022-09-28T22:51:25.289Z,30.33
2022-09-28T22:53:53.651Z,15.07
2022-09-28T22:56:21.678Z,26.00
2022-09-28T22:58:49.660Z,15.48
2022-09-28T23:01:20.888Z,7.75
2022-09-28T23:03:49.561Z,10.15
2022-09-28T23:06:20.926Z,26.50
2022-09-28T23:08:51.745Z,23.67
2022-09-28T23:11:20.242Z,15.20
2022-09-28T23:13:50.687Z,16.65
2022-09-28T23:16:19.779Z,13.43
2022-09-28T23:18:49.072Z,17.30
2022-09-28T23:21:19.650Z,22.63
2022-09-28T23:23:54.458Z,26.13
2022-09-28T23:26:25.018Z,53.53
2022-09-28T23:28:54.175Z,40.58
2022-09-28T23:31:24.331Z,41.60
2022-09-28T23:33:52.684Z,23.20
2022-09-28T23:36:20.714Z,25.08
2022-09-28T23:38:48.765Z,8.40
2022-09-28T23:41:18.128Z,10.85
2022-09-28T23:43:46.518Z,28.92
2022-09-28T23:46:19.671Z,11.93
2022-09-28T23:48:48.716Z,24.35
2022-09-28T23:51:16.775Z,12.45
2022-09-28T23:53:44.812Z,37.25
2022-09-28T23:56:12.883Z,20.23
2022-09-28T23:58:42.220Z,33.92
